Skip Navigation Links
NOAA logo - Click to go to the NOAA homepage
NOAA's National Weather Service
Alaska Aviation Weather Unit
  NWS logo - Click to go to the NWS homepage
Left Navbar Graphic     12 AKDT = 20 GMT

   
NOAA is celebrating 200 years of science, service, and stewardship. Visit the NOAA 200th celebration Web site to learn more.
USA.gov is the U.S. Government's official Web portal to all Federal, state and local government Web resources and services.
Facebook
NWS on Facebook

Important Change Regarding the AAWU Web Presence

 

Over the last several months, the AAWU has been working to navigate its webpages to a nationally supported server. Security, as well as other needs, have necessitated the change.  We have been given an extension for the site changeover while we diligently work at addressing feedback received. As of July 14, 2017, aawu.arh.noaa.gov will be discontinued. The new AAWU web address is weather.gov/aawu. It is now live and will run in-parallel with the old site until it is discontinued on July 14, 2017. Please continue to send any feedback or questions regarding the new webpages to nws.ar.aawu.webauthors@noaa.gov.  Thank you for your patience during this time of transition.
AAWU Home :: Display TAF Add Bookmark
TAF PASN 251725Z 2518/2618 28014KT 1 1/2SM BR OVC002
      TEMPO 2518/2522 3SM BR=

METAR PASN 251453Z AUTO 31008KT 1SM BR VV002 08/08 A3008 RMK AO2 SLP188 T00830083 53006 TSNO $= PASN 251518Z AUTO 29010KT 1/2SM FG VV002 08/08 A3008= METAR PASN 251553Z AUTO 30013KT 1/2SM FG VV002 08/08 A3009 RMK AO2 SLP188 T00830083 TSNO $= PASN 251609Z AUTO 29010KT 3/4SM BR VV002 08/08 A3009= PASN 251637Z AUTO 28013KT 1 1/4SM BR OVC002 08/08 A3009= METAR PASN 251653Z AUTO 29013KT 1 1/2SM BR OVC002 08/08 A3009 RMK AO2 SLP188 T00830083 TSNO $= PASN 251717Z AUTO 28012KT 2SM BR OVC002 08/08 A3009= PASN 251730Z AUTO 29015KT 3SM BR OVC003 08/08 A3009= SPECI PASN 251742Z AUTO 30014KT 2 1/2SM BR OVC003 08/08 A3009 RMK AO2 T00830083 TSNO $= PASN 251751Z AUTO 29016KT 3SM BR OVC003 08/08 A3009= METAR PASN 251753Z AUTO 29013KT 3SM BR OVC003 08/08 A3009 RMK AO2 SLP188 T00830083 10089 20078 50000 TSNO $= SPECI PASN 251828Z AUTO 29011KT 2 1/2SM BR OVC003 08/08 A3010 RMK AO2 T00830083 TSNO $= PASN 251835Z AUTO 28013KT 3SM BR OVC003 09/09 A3009= PASN 251845Z AUTO 30008KT 2 1/2SM BR OVC003 09/09 A3009= METAR PASN 251853Z AUTO 30011G15KT 2 1/2SM BR OVC003 09/09 A3009 RMK AO2 VIS 1 1/2V4 SLP191 T00890089 TSNO $= PASN 251905Z AUTO 29012KT 5SM BR OVC003 09/09 A3010= PASN 251919Z AUTO 29010KT 2 1/2SM BR OVC003 09/09 A3010= PASN 251936Z AUTO 29011KT 4SM BR OVC003 09/09 A3010= METAR PASN 251953Z AUTO 29014G21KT 3SM BR OVC004 09/09 A3011 RMK AO2 SLP195 T00890089 TSNO $=
 Alaska TAF Map

NOAA's National Weather Service
Alaska Aviation Weather Unit
6930 Sand Lake Road
Anchorage, AK 99502-1845
Disclaimer
Credits
Glossary
Privacy Policy
About Us
Career Opportunities
Contact AAWU Internet Services Site last modified: April, 17th 2012